Time;durP1;ratioP1;P1;durP2;ratioP2;P2;SDS_P1;SDS_P2;PMS_P1;PMS_P2;Temp;Humidity;BMP_temperature;BMP_pressure;BME280_temperature;BME280_humidity;BME280_pressure;Samples;Min_cycle;Max_cycle;Signal;HPM_P1;HPM_P2
2021/07/04 00:01:24;;;;;;;17.77;14.02;;;19.00;90.10;;;;;;5064049;28;21034;-78
2021/07/04 00:03:50;;;;;;;20.87;14.57;;;19.00;90.40;;;;;;5059156;28;20403;-77
2021/07/04 00:06:16;;;;;;;19.60;14.70;;;19.00;91.10;;;;;;5055187;28;20393;-77
2021/07/04 00:08:41;;;;;;;24.27;16.73;;;19.00;92.40;;;;;;5054401;28;20397;-76
2021/07/04 00:11:22;;;;;;;19.50;15.63;;;19.00;93.60;;;;;;5055125;28;20382;-77
2021/07/04 00:13:47;;;;;;;24.50;17.15;;;19.10;94.60;;;;;;5053805;28;20890;-77
2021/07/04 00:16:13;;;;;;;20.75;16.55;;;19.20;95.40;;;;;;5055309;28;20458;-78
2021/07/04 00:18:38;;;;;;;27.53;19.20;;;19.20;95.90;;;;;;5055426;28;20796;-77
2021/07/04 00:21:07;;;;;;;26.27;19.53;;;19.30;97.00;;;;;;5057199;28;20439;-77
2021/07/04 00:23:33;;;;;;;28.90;21.70;;;19.40;96.70;;;;;;5058620;28;20450;-77
2021/07/04 00:25:59;;;;;;;31.75;20.98;;;19.30;97.50;;;;;;5057919;28;20793;-77
2021/07/04 00:28:25;;;;;;;30.67;22.63;;;19.30;98.10;;;;;;5054258;28;20393;-77
2021/07/04 00:30:52;;;;;;;32.47;22.75;;;19.20;99.60;;;;;;5056694;28;20397;-79
2021/07/04 00:33:18;;;;;;;35.25;24.20;;;19.30;99.20;;;;;;5059614;28;20393;-77
2021/07/04 00:35:44;;;;;;;37.60;26.77;;;19.30;99.10;;;;;;5056176;28;20405;-78
2021/07/04 00:38:10;;;;;;;37.40;26.57;;;19.30;99.90;;;;;;5056400;28;20421;-77
2021/07/04 00:40:36;;;;;;;41.78;28.92;;;19.20;99.90;;;;;;5054468;28;20408;-78
2021/07/04 00:43:04;;;;;;;42.38;28.90;;;19.10;99.90;;;;;;5054077;28;20389;-78
2021/07/04 00:45:29;;;;;;;41.58;29.60;;;19.00;99.90;;;;;;5054088;28;20381;-78
2021/07/04 00:47:55;;;;;;;43.67;29.88;;;19.00;99.90;;;;;;5054749;28;20377;-78
2021/07/04 00:50:25;;;;;;;42.67;30.87;;;18.90;99.90;;;;;;5058159;28;20389;-77
2021/07/04 00:52:53;;;;;;;46.65;32.35;;;18.80;99.90;;;;;;5059724;28;20844;-77
2021/07/04 00:55:18;;;;;;;46.60;32.75;;;18.80;99.90;;;;;;5057029;28;20401;-78
2021/07/04 00:57:45;;;;;;;44.47;33.05;;;18.80;99.90;;;;;;5055476;28;20400;-77
2021/07/04 01:00:17;;;;;;;40.73;31.13;;;18.80;99.90;;;;;;5054379;28;20417;-78
2021/07/04 01:02:43;;;;;;;41.85;30.27;;;18.80;99.90;;;;;;5052369;28;20377;-77
2021/07/04 01:05:12;;;;;;;43.00;30.87;;;18.90;99.90;;;;;;5053139;28;20480;-78
2021/07/04 01:07:39;;;;;;;40.95;30.30;;;18.90;99.90;;;;;;5055057;28;20738;-78
2021/07/04 01:10:06;;;;;;;39.55;29.10;;;18.90;99.90;;;;;;5056711;28;20474;-77
2021/07/04 01:12:32;;;;;;;47.50;30.40;;;18.80;99.90;;;;;;5053703;28;20417;-77
2021/07/04 01:14:58;;;;;;;45.05;31.92;;;18.90;99.90;;;;;;5053845;28;20413;-77
2021/07/04 01:17:24;;;;;;;40.03;29.35;;;18.90;99.90;;;;;;5053432;28;20461;-77
2021/07/04 01:19:50;;;;;;;43.50;30.17;;;18.90;99.90;;;;;;5052158;28;20476;-77
2021/07/04 01:22:18;;;;;;;41.73;30.10;;;18.90;99.90;;;;;;5054409;28;20459;-78
2021/07/04 01:24:44;;;;;;;40.47;29.52;;;18.90;99.90;;;;;;5055347;28;20472;-77
2021/07/04 01:27:10;;;;;;;41.88;30.15;;;18.90;99.90;;;;;;5056067;28;20381;-77
2021/07/04 01:29:36;;;;;;;39.42;29.35;;;18.90;99.90;;;;;;5055456;28;20455;-77
2021/07/04 01:32:02;;;;;;;42.42;29.23;;;18.90;99.90;;;;;;5056708;28;20786;-76
2021/07/04 01:34:28;;;;;;;41.10;29.53;;;18.90;99.90;;;;;;5061034;28;20381;-78
2021/07/04 01:36:54;;;;;;;38.20;27.47;;;18.90;99.90;;;;;;5064233;28;20392;-78
2021/07/04 01:39:19;;;;;;;40.70;29.10;;;19.00;99.90;;;;;;5063240;28;20927;-79
2021/07/04 01:41:45;;;;;;;39.70;28.77;;;18.90;99.90;;;;;;5064058;28;20385;-77
2021/07/04 01:44:10;;;;;;;44.20;29.90;;;18.90;99.90;;;;;;5064763;28;20386;-78
2021/07/04 01:46:36;;;;;;;38.80;29.13;;;19.00;99.90;;;;;;5065072;28;20407;-78
2021/07/04 01:49:02;;;;;;;46.83;33.20;;;19.00;99.90;;;;;;5056532;28;20480;-78
2021/07/04 01:51:28;;;;;;;47.97;33.00;;;19.00;99.90;;;;;;5054970;28;20390;-78
2021/07/04 01:53:53;;;;;;;49.73;36.00;;;19.00;99.90;;;;;;5055456;28;20385;-78
2021/07/04 01:56:19;;;;;;;47.73;32.77;;;18.90;99.90;;;;;;5057275;28;20448;-78
2021/07/04 01:58:44;;;;;;;51.17;35.70;;;18.80;99.90;;;;;;5059596;28;20473;-78
2021/07/04 02:01:10;;;;;;;48.65;33.60;;;19.10;99.90;;;;;;5069789;28;20400;-77
2021/07/04 02:03:36;;;;;;;46.00;33.27;;;19.10;99.90;;;;;;5070049;28;20460;-77
2021/07/04 02:06:01;;;;;;;44.40;32.00;;;19.40;98.70;;;;;;5059114;28;20412;-78
2021/07/04 02:08:27;;;;;;;47.72;34.78;;;19.50;96.50;;;;;;5054065;28;20535;-78
2021/07/04 02:10:53;;;;;;;46.38;33.47;;;19.50;95.80;;;;;;5052752;28;20479;-78
2021/07/04 02:13:18;;;;;;;43.83;32.00;;;19.30;97.60;;;;;;5053308;28;20406;-78
2021/07/04 02:15:44;;;;;;;45.97;33.73;;;19.20;99.50;;;;;;5056316;28;20412;-77
2021/07/04 02:18:13;;;;;;;47.75;33.97;;;19.10;99.80;;;;;;5075932;28;20448;-77
2021/07/04 02:20:41;;;;;;;54.33;36.05;;;19.10;99.90;;;;;;5069191;28;20469;-76
2021/07/04 02:23:07;;;;;;;50.27;36.10;;;19.00;99.90;;;;;;5068167;28;20878;-77
2021/07/04 02:25:34;;;;;;;49.17;35.80;;;19.20;99.90;;;;;;5057044;28;20447;-76
2021/07/04 02:27:59;;;;;;;48.45;33.05;;;19.20;98.40;;;;;;5060214;28;20381;-77
2021/07/04 02:30:25;;;;;;;55.20;35.85;;;19.00;99.40;;;;;;5063793;28;20397;-78
2021/07/04 02:32:53;;;;;;;48.80;34.08;;;18.90;99.90;;;;;;5062697;28;20437;-78
2021/07/04 02:35:19;;;;;;;49.67;34.83;;;18.80;99.90;;;;;;5055390;28;20420;-76
2021/07/04 02:37:44;;;;;;;45.85;33.10;;;18.70;99.90;;;;;;5054179;28;20392;-77
2021/07/04 02:40:10;;;;;;;52.03;36.40;;;18.50;99.90;;;;;;5055190;28;20373;-77
2021/07/04 02:42:36;;;;;;;52.00;36.47;;;18.50;99.90;;;;;;5055098;28;20468;-77
2021/07/04 02:45:04;;;;;;;54.90;36.77;;;18.50;99.90;;;;;;5054840;28;20921;-77
2021/07/04 02:47:30;;;;;;;48.28;34.78;;;18.50;99.90;;;;;;5055005;28;20380;-79
2021/07/04 02:49:56;;;;;;;47.50;34.90;;;18.60;99.90;;;;;;5056698;28;20385;-78
2021/07/04 02:52:22;;;;;;;45.60;33.63;;;18.60;99.90;;;;;;5056656;28;20897;-77
2021/07/04 02:54:47;;;;;;;48.90;34.67;;;18.50;99.90;;;;;;5057403;28;20409;-78
2021/07/04 02:57:13;;;;;;;49.70;35.13;;;18.60;99.90;;;;;;5055114;28;20476;-77
2021/07/04 02:59:39;;;;;;;51.40;36.90;;;18.60;99.90;;;;;;5054632;28;20423;-77
2021/07/04 03:02:05;;;;;;;49.65;34.95;;;18.60;99.90;;;;;;5054975;28;20390;-77
2021/07/04 03:04:30;;;;;;;50.00;35.15;;;18.60;99.90;;;;;;5056145;28;20464;-77
2021/07/04 03:06:57;;;;;;;44.83;32.90;;;18.60;99.90;;;;;;5056270;28;20789;-77
2021/07/04 03:09:23;;;;;;;42.85;31.13;;;18.60;99.90;;;;;;5055179;28;20389;-77
2021/07/04 03:11:49;;;;;;;50.30;33.97;;;18.60;99.90;;;;;;5055558;28;20833;-78
2021/07/04 03:14:15;;;;;;;45.55;31.75;;;18.70;99.90;;;;;;5055581;28;20378;-77
2021/07/04 03:16:40;;;;;;;47.53;32.45;;;18.70;99.90;;;;;;5053985;28;20401;-77
2021/07/04 03:19:06;;;;;;;50.03;32.23;;;18.70;99.90;;;;;;5053369;28;20473;-78
2021/07/04 03:21:32;;;;;;;47.03;31.87;;;18.70;99.90;;;;;;5053745;28;20862;-78
2021/07/04 03:23:57;;;;;;;45.22;32.00;;;18.70;99.90;;;;;;5053692;28;20390;-78
2021/07/04 03:26:23;;;;;;;44.90;31.80;;;18.80;99.90;;;;;;5054453;28;20389;-77
2021/07/04 03:28:48;;;;;;;43.40;32.10;;;18.80;99.90;;;;;;5051346;28;20477;-77
2021/07/04 03:31:14;;;;;;;45.55;31.85;;;18.70;99.90;;;;;;5053255;28;20761;-77
2021/07/04 03:33:40;;;;;;;43.63;31.20;;;18.70;99.90;;;;;;5057033;28;20704;-77
2021/07/04 03:36:05;;;;;;;41.27;30.67;;;18.70;99.90;;;;;;5054406;28;20409;-77
2021/07/04 03:38:32;;;;;;;44.28;32.00;;;18.80;99.90;;;;;;5053204;28;20388;-77
2021/07/04 03:40:57;;;;;;;40.73;30.33;;;18.80;99.90;;;;;;5053250;28;20934;-77
2021/07/04 03:43:23;;;;;;;40.90;28.77;;;18.80;99.90;;;;;;5051280;28;20476;-77
2021/07/04 03:45:48;;;;;;;43.85;31.45;;;18.80;99.90;;;;;;5053021;28;20756;-78
2021/07/04 03:48:14;;;;;;;43.00;30.35;;;18.80;99.90;;;;;;5052889;28;20519;-77
2021/07/04 03:50:40;;;;;;;43.28;31.25;;;18.80;99.90;;;;;;5053051;28;20381;-77
2021/07/04 03:53:06;;;;;;;44.33;31.70;;;18.90;99.90;;;;;;5053142;28;20498;-77
2021/07/04 03:55:31;;;;;;;44.33;30.67;;;18.80;99.90;;;;;;5052851;28;20409;-77
2021/07/04 03:57:57;;;;;;;41.65;29.90;;;18.80;99.90;;;;;;5052881;28;20389;-77
2021/07/04 04:00:22;;;;;;;43.15;31.30;;;18.90;99.90;;;;;;5052399;28;20456;-77
2021/07/04 04:02:48;;;;;;;44.87;32.20;;;18.90;99.90;;;;;;5052382;28;20427;-77
2021/07/04 04:05:14;;;;;;;42.30;30.50;;;18.90;99.90;;;;;;5053128;28;20439;-77
2021/07/04 04:07:40;;;;;;;48.80;31.00;;;18.90;99.90;;;;;;5052970;28;20382;-77
2021/07/04 04:10:07;;;;;;;46.67;31.38;;;18.80;99.90;;;;;;5053099;28;20386;-77
2021/07/04 04:12:33;;;;;;;40.28;30.30;;;18.90;99.90;;;;;;5070211;28;20485;-77
2021/07/04 04:15:02;;;;;;;48.20;32.42;;;18.90;99.90;;;;;;5055145;28;20416;-76
2021/07/04 04:17:29;;;;;;;43.70;31.67;;;19.00;99.90;;;;;;5054208;28;20755;-76
2021/07/04 04:19:54;;;;;;;41.95;30.08;;;19.00;99.90;;;;;;5053874;28;20823;-76
2021/07/04 04:22:20;;;;;;;44.40;32.37;;;19.00;99.90;;;;;;5053234;28;20459;-76
2021/07/04 04:24:47;;;;;;;45.08;32.33;;;19.00;99.90;;;;;;5051281;28;20758;-76
2021/07/04 04:27:12;;;;;;;43.78;31.20;;;19.00;99.90;;;;;;5051648;28;20393;-76
2021/07/04 04:29:38;;;;;;;42.93;31.87;;;19.00;99.90;;;;;;5066186;28;20396;-75
2021/07/04 04:32:04;;;;;;;42.92;30.85;;;19.00;99.90;;;;;;5051205;28;20392;-75
2021/07/04 04:34:29;;;;;;;42.22;31.10;;;19.00;99.90;;;;;;5051029;28;20793;-75
2021/07/04 04:36:55;;;;;;;44.58;31.13;;;19.00;99.90;;;;;;5051372;28;20377;-76
2021/07/04 04:39:21;;;;;;;40.17;30.50;;;19.00;99.90;;;;;;5052461;28;20429;-77
2021/07/04 04:41:50;;;;;;;44.03;28.83;;;19.00;99.90;;;;;;5055214;28;20758;-77
2021/07/04 04:44:16;;;;;;;36.60;26.40;;;19.00;99.90;;;;;;5052036;28;20878;-76
2021/07/04 04:46:42;;;;;;;39.00;28.30;;;19.10;99.90;;;;;;5054141;28;20385;-77
2021/07/04 04:49:08;;;;;;;35.00;26.63;;;19.10;99.90;;;;;;5059892;28;20440;-77
2021/07/04 04:51:34;;;;;;;38.83;27.15;;;19.10;99.90;;;;;;5058292;28;20703;-76
2021/07/04 04:53:59;;;;;;;38.13;28.15;;;19.10;99.90;;;;;;5051884;28;20388;-76
2021/07/04 04:56:25;;;;;;;42.93;29.10;;;19.20;99.90;;;;;;5051111;28;20886;-77
2021/07/04 04:58:51;;;;;;;41.17;30.27;;;19.20;99.90;;;;;;5050394;28;20396;-77
2021/07/04 05:01:16;;;;;;;35.20;26.70;;;19.20;99.90;;;;;;5051063;28;20439;-77
2021/07/04 05:03:42;;;;;;;39.63;28.42;;;19.30;99.90;;;;;;5051420;28;20893;-78
2021/07/04 05:06:07;;;;;;;35.10;25.50;;;19.20;99.90;;;;;;5051547;28;20385;-77
2021/07/04 05:08:33;;;;;;;36.60;28.33;;;19.30;99.90;;;;;;5051920;28;20435;-77
2021/07/04 05:10:58;;;;;;;40.37;28.23;;;19.30;99.90;;;;;;5052955;28;20427;-77
2021/07/04 05:13:24;;;;;;;36.43;27.00;;;19.20;99.90;;;;;;5052871;28;20395;-76
2021/07/04 05:15:50;;;;;;;34.65;26.85;;;19.20;99.90;;;;;;5050815;28;20508;-76
2021/07/04 05:18:15;;;;;;;31.83;25.48;;;19.20;99.90;;;;;;5050793;28;20393;-76
2021/07/04 05:20:41;;;;;;;33.30;25.87;;;19.20;99.90;;;;;;5049509;28;20922;-77
2021/07/04 05:23:06;;;;;;;33.73;25.47;;;19.10;99.90;;;;;;5065435;28;20388;-78
2021/07/04 05:25:32;;;;;;;35.55;26.05;;;19.00;99.90;;;;;;5073784;28;20387;-77
2021/07/04 05:27:58;;;;;;;30.33;24.27;;;19.00;99.90;;;;;;5052931;28;20393;-77
2021/07/04 05:30:23;;;;;;;36.57;25.97;;;18.90;99.90;;;;;;5051304;28;20957;-77
2021/07/04 05:32:49;;;;;;;40.72;26.65;;;18.90;99.90;;;;;;5050473;28;20405;-77
2021/07/04 05:35:14;;;;;;;41.27;27.63;;;18.90;99.90;;;;;;5050481;28;20411;-76
2021/07/04 05:37:40;;;;;;;35.03;25.00;;;18.90;99.90;;;;;;5049249;28;20396;-77
2021/07/04 05:40:14;;;;;;;33.33;24.48;;;18.90;99.90;;;;;;5050600;28;20378;-77
2021/07/04 05:42:41;;;;;;;31.65;24.35;;;19.00;99.90;;;;;;5050213;28;20830;-77
2021/07/04 05:45:11;;;;;;;32.17;23.00;;;19.00;99.90;;;;;;5050460;28;20747;-76
2021/07/04 05:47:37;;;;;;;36.00;24.17;;;19.00;99.90;;;;;;5050287;28;20468;-77
2021/07/04 05:50:04;;;;;;;28.70;23.20;;;19.10;99.90;;;;;;5050394;28;20382;-77
2021/07/04 05:52:31;;;;;;;30.27;23.43;;;19.10;99.90;;;;;;5052197;28;20547;-76
2021/07/04 05:54:56;;;;;;;28.05;23.08;;;19.20;99.90;;;;;;5054872;28;20413;-77
2021/07/04 05:57:22;;;;;;;33.60;24.07;;;19.10;99.90;;;;;;5056348;28;20381;-77
2021/07/04 05:59:47;;;;;;;30.43;23.40;;;19.10;99.90;;;;;;5058301;28;20374;-77
2021/07/04 06:02:13;;;;;;;31.42;23.27;;;19.10;99.90;;;;;;5059835;28;20377;-76
2021/07/04 06:04:39;;;;;;;31.40;21.50;;;19.30;99.90;;;;;;5055564;28;20765;-75
2021/07/04 06:07:04;;;;;;;30.53;22.23;;;19.60;98.50;;;;;;5056965;28;20416;-78
2021/07/04 06:09:30;;;;;;;28.10;21.90;;;20.10;94.00;;;;;;5059169;28;20385;-78
2021/07/04 06:11:55;;;;;;;33.45;22.05;;;20.40;88.20;;;;;;5057188;28;20408;-77
2021/07/04 06:14:21;;;;;;;26.97;19.80;;;20.70;85.40;;;;;;5064574;28;20388;-78
2021/07/04 06:16:47;;;;;;;25.42;20.48;;;21.10;80.70;;;;;;5066551;28;20416;-76
2021/07/04 06:19:13;;;;;;;24.73;18.92;;;21.30;76.60;;;;;;5071118;28;20398;-76
2021/07/04 06:21:38;;;;;;;23.92;18.80;;;21.70;73.20;;;;;;5055002;28;20377;-76
2021/07/04 06:24:05;;;;;;;25.03;19.43;;;21.90;68.30;;;;;;5057704;28;20875;-78
2021/07/04 06:26:30;;;;;;;19.80;16.73;;;21.80;66.40;;;;;;5055017;28;20421;-77
2021/07/04 06:28:56;;;;;;;21.73;17.90;;;22.00;66.80;;;;;;5057320;28;20400;-77
2021/07/04 06:31:22;;;;;;;23.75;17.25;;;22.30;62.30;;;;;;5054774;28;20769;-77
2021/07/04 06:33:49;;;;;;;19.67;16.60;;;22.60;59.60;;;;;;5055025;28;20464;-77
2021/07/04 06:36:15;;;;;;;23.15;16.95;;;22.80;57.50;;;;;;5053512;28;20463;-77
2021/07/04 06:38:40;;;;;;;23.13;16.95;;;22.80;52.20;;;;;;5055223;28;20389;-77
2021/07/04 06:41:06;;;;;;;27.27;16.97;;;22.80;53.00;;;;;;5055254;28;20850;-77
2021/07/04 06:43:31;;;;;;;24.67;16.63;;;22.80;52.30;;;;;;5055183;28;20458;-78
2021/07/04 06:45:57;;;;;;;24.70;17.30;;;22.90;51.20;;;;;;5055232;28;20392;-77
2021/07/04 06:48:22;;;;;;;22.50;16.55;;;22.80;51.10;;;;;;5070100;28;20396;-77
2021/07/04 06:50:48;;;;;;;24.00;17.73;;;22.70;51.50;;;;;;5054039;28;20523;-77
2021/07/04 06:53:14;;;;;;;24.97;16.77;;;22.80;51.60;;;;;;5054190;28;20392;-77
2021/07/04 06:55:39;;;;;;;24.30;17.10;;;23.00;50.90;;;;;;5054839;28;20408;-77
2021/07/04 06:58:05;;;;;;;22.60;15.50;;;23.30;47.80;;;;;;5054221;28;20921;-78
2021/07/04 07:00:31;;;;;;;20.17;15.70;;;23.70;45.90;;;;;;5054731;28;20382;-77
2021/07/04 07:02:56;;;;;;;24.85;16.23;;;23.70;45.70;;;;;;5056403;28;20407;-78
2021/07/04 07:05:22;;;;;;;24.83;16.67;;;23.60;45.90;;;;;;5057246;28;20457;-77
2021/07/04 07:07:48;;;;;;;22.98;16.38;;;23.50;46.40;;;;;;5068820;28;20385;-77
2021/07/04 07:10:14;;;;;;;19.60;16.15;;;23.50;47.00;;;;;;5076068;28;20374;-77
2021/07/04 07:12:40;;;;;;;19.33;14.68;;;23.30;48.00;;;;;;5073992;28;20401;-78
2021/07/04 07:15:07;;;;;;;25.10;16.38;;;23.20;48.50;;;;;;5056478;28;20401;-78
2021/07/04 07:17:32;;;;;;;20.38;15.50;;;23.20;49.00;;;;;;5056013;28;20386;-77
2021/07/04 07:19:58;;;;;;;19.10;14.80;;;23.20;49.30;;;;;;5052355;28;20476;-77
2021/07/04 07:22:24;;;;;;;19.67;15.55;;;23.40;49.10;;;;;;5056480;28;20842;-79
2021/07/04 07:24:49;;;;;;;24.87;14.47;;;23.50;47.30;;;;;;5069902;28;20419;-77
2021/07/04 07:27:15;;;;;;;21.75;14.10;;;23.60;46.50;;;;;;5070342;28;20468;-78
2021/07/04 07:29:41;;;;;;;20.80;14.20;;;23.90;42.80;;;;;;5070266;28;20654;-78
2021/07/04 07:32:07;;;;;;;21.25;14.27;;;24.10;41.00;;;;;;5073416;28;20388;-77
2021/07/04 07:34:33;;;;;;;22.83;15.43;;;23.90;41.70;;;;;;5072988;28;20397;-78
2021/07/04 07:36:59;;;;;;;20.60;14.70;;;23.60;43.60;;;;;;5073576;28;20401;-77
2021/07/04 07:39:24;;;;;;;19.67;14.90;;;23.60;44.40;;;;;;5055821;28;20410;-78
2021/07/04 07:41:50;;;;;;;15.90;12.80;;;23.50;45.50;;;;;;5055220;28;20719;-77
2021/07/04 07:44:16;;;;;;;19.40;13.40;;;23.60;44.30;;;;;;5057581;28;20378;-77
2021/07/04 07:46:42;;;;;;;13.02;11.10;;;23.90;42.90;;;;;;5066528;28;20385;-77
2021/07/04 07:49:08;;;;;;;14.98;11.38;;;24.20;41.00;;;;;;5057823;28;20487;-77
2021/07/04 07:51:36;;;;;;;16.55;11.40;;;24.50;39.60;;;;;;5064630;28;20389;-77
2021/07/04 07:54:03;;;;;;;17.07;10.27;;;24.50;38.20;;;;;;5069770;28;20401;-78
2021/07/04 07:56:29;;;;;;;12.15;9.75;;;24.60;37.80;;;;;;5068963;28;20475;-78
2021/07/04 07:58:54;;;;;;;16.13;11.82;;;24.70;37.60;;;;;;5068885;28;20382;-77
2021/07/04 08:01:20;;;;;;;20.83;12.30;;;24.50;37.20;;;;;;5070535;28;20377;-78
2021/07/04 08:03:46;;;;;;;14.85;12.55;;;24.40;38.00;;;;;;5070751;28;20388;-78
2021/07/04 08:06:12;;;;;;;17.43;13.03;;;24.50;38.40;;;;;;5067599;28;20408;-78
2021/07/04 08:08:37;;;;;;;15.80;12.70;;;24.70;36.40;;;;;;5066890;28;20439;-78
2021/07/04 08:11:04;;;;;;;13.60;11.87;;;24.50;37.10;;;;;;5061179;28;20503;-77
2021/07/04 08:13:30;;;;;;;18.63;12.88;;;24.50;36.90;;;;;;5055076;28;20393;-76
2021/07/04 08:15:55;;;;;;;15.00;12.52;;;24.70;36.20;;;;;;5054133;28;20463;-76
2021/07/04 08:18:24;;;;;;;14.97;11.47;;;24.50;37.70;;;;;;5053781;28;20393;-77
2021/07/04 08:20:50;;;;;;;17.85;12.25;;;24.20;39.40;;;;;;5055236;28;20763;-77
2021/07/04 08:23:16;;;;;;;15.70;10.90;;;24.20;39.50;;;;;;5071635;28;20389;-78
2021/07/04 08:25:42;;;;;;;15.48;11.15;;;24.40;39.30;;;;;;5054303;28;20832;-78
2021/07/04 08:28:08;;;;;;;12.25;9.75;;;24.70;36.60;;;;;;5053997;28;20377;-77
2021/07/04 08:30:34;;;;;;;14.50;11.23;;;24.80;34.60;;;;;;5054903;28;20408;-78
2021/07/04 08:33:00;;;;;;;13.93;10.40;;;25.00;34.80;;;;;;5050959;28;20411;-77
2021/07/04 08:35:25;;;;;;;11.50;9.65;;;25.00;35.20;;;;;;5050385;28;20493;-77
2021/07/04 08:37:51;;;;;;;13.55;9.77;;;25.00;34.20;;;;;;5053118;28;20904;-77
2021/07/04 08:40:16;;;;;;;11.43;9.63;;;25.00;34.40;;;;;;5051531;28;20482;-76
2021/07/04 08:42:42;;;;;;;11.48;9.23;;;25.00;33.10;;;;;;5053716;28;20386;-76
2021/07/04 08:45:08;;;;;;;10.90;8.73;;;25.00;32.50;;;;;;5051933;28;20417;-78
2021/07/04 08:47:34;;;;;;;10.73;8.97;;;25.00;33.10;;;;;;5053283;28;20386;-75
2021/07/04 08:50:00;;;;;;;11.75;8.80;;;25.30;31.80;;;;;;5052315;28;20386;-76
2021/07/04 08:52:25;;;;;;;12.45;8.65;;;25.60;30.70;;;;;;5053534;28;20416;-77
2021/07/04 08:54:51;;;;;;;14.60;10.33;;;25.80;30.40;;;;;;5060994;28;20397;-78
2021/07/04 08:57:17;;;;;;;14.75;9.80;;;25.70;30.50;;;;;;5060532;28;20388;-78
2021/07/04 08:59:46;;;;;;;13.48;10.65;;;25.60;30.00;;;;;;5061254;28;20373;-77
2021/07/04 09:02:15;;;;;;;17.45;12.60;;;25.50;30.80;;;;;;5057334;28;20901;-78
2021/07/04 09:05:00;;;;;;;13.63;10.90;;;25.50;32.10;;;;;;5058327;28;20385;-78
2021/07/04 09:07:26;;;;;;;13.02;11.50;;;25.70;30.90;;;;;;5057573;28;20430;-77
2021/07/04 09:10:02;;;;;;;14.45;12.00;;;25.80;30.80;;;;;;5054233;28;20910;-76
2021/07/04 09:12:35;;;;;;;13.13;11.35;;;25.90;30.50;;;;;;5054655;28;20476;-78
2021/07/04 09:15:14;;;;;;;14.32;12.30;;;25.80;30.80;;;;;;5069695;28;20481;-76
2021/07/04 09:17:44;;;;;;;14.88;12.27;;;25.80;30.60;;;;;;5053108;28;20381;-77
2021/07/04 09:20:16;;;;;;;14.27;11.17;;;25.50;31.30;;;;;;5052126;28;20480;-77
2021/07/04 09:22:54;;;;;;;13.43;11.83;;;25.50;31.40;;;;;;5052792;28;20396;-77
2021/07/04 09:25:21;;;;;;;13.60;11.90;;;25.80;30.20;;;;;;5053825;28;20500;-79
2021/07/04 09:28:12;;;;;;;12.60;11.20;;;25.70;30.40;;;;;;5068026;28;20389;-77
2021/07/04 09:30:47;;;;;;;14.35;10.68;;;25.60;31.70;;;;;;5068484;23;20422;-73
2021/07/04 09:33:20;;;;;;;11.52;10.32;;;25.50;30.60;;;;;;5051739;28;20384;-71
2021/07/04 09:36:09;;;;;;;12.10;10.00;;;25.50;30.90;;;;;;5051602;28;20420;-72
2021/07/04 09:38:35;;;;;;;13.20;10.32;;;25.70;30.40;;;;;;5051575;28;20477;-71
2021/07/04 09:41:02;;;;;;;11.45;9.73;;;26.30;27.50;;;;;;5051073;28;20417;-71
2021/07/04 09:43:30;;;;;;;11.10;9.90;;;26.60;26.60;;;;;;5051046;28;20435;-73
2021/07/04 09:46:01;;;;;;;10.43;9.32;;;27.00;25.00;;;;;;5050704;28;20414;-72
2021/07/04 09:48:29;;;;;;;11.27;9.27;;;27.40;22.50;;;;;;5051055;28;20469;-73
2021/07/04 09:51:01;;;;;;;10.45;8.45;;;27.70;20.60;;;;;;5050590;28;20385;-73
2021/07/04 09:53:41;;;;;;;9.48;8.43;;;27.80;19.60;;;;;;5049209;28;20453;-72
2021/07/04 09:56:15;;;;;;;8.82;7.90;;;27.70;20.20;;;;;;5050841;28;20401;-73
2021/07/04 09:58:45;;;;;;;8.40;7.60;;;27.60;20.30;;;;;;5050633;28;20468;-73
2021/07/04 10:01:29;;;;;;;9.45;8.45;;;27.60;19.90;;;;;;5050702;28;20793;-72
2021/07/04 10:03:54;;;;;;;7.07;6.47;;;27.70;20.80;;;;;;5050448;28;20801;-73
2021/07/04 10:06:21;;;;;;;8.67;6.40;;;27.70;19.80;;;;;;5050599;28;20389;-72
2021/07/04 10:08:47;;;;;;;6.20;5.60;;;28.00;19.00;;;;;;5050663;28;20381;-72
2021/07/04 10:11:14;;;;;;;7.33;6.63;;;28.10;18.40;;;;;;5050585;28;20762;-71
2021/07/04 10:13:45;;;;;;;9.20;5.90;;;28.10;18.60;;;;;;5050418;28;20381;-72
2021/07/04 10:16:16;;;;;;;6.88;6.22;;;27.80;18.20;;;;;;5049167;28;20781;-71
2021/07/04 10:18:43;;;;;;;8.60;6.72;;;27.60;18.90;;;;;;5050385;28;20914;-71
2021/07/04 10:21:09;;;;;;;9.80;5.90;;;27.50;18.90;;;;;;5050106;28;20386;-73
2021/07/04 10:23:35;;;;;;;9.15;5.80;;;27.30;20.00;;;;;;5050469;28;20868;-73
2021/07/04 10:26:02;;;;;;;6.20;5.60;;;27.20;19.60;;;;;;5050754;28;20412;-73
2021/07/04 10:28:27;;;;;;;6.03;5.43;;;27.10;19.80;;;;;;5050934;28;20401;-72
2021/07/04 10:30:53;;;;;;;6.15;5.55;;;27.10;20.10;;;;;;5050767;28;20434;-72
2021/07/04 10:33:21;;;;;;;6.20;5.60;;;27.20;19.50;;;;;;5049969;28;20473;-72
2021/07/04 10:35:50;;;;;;;6.00;5.50;;;27.20;19.50;;;;;;5050752;28;20408;-72
2021/07/04 10:38:16;;;;;;;7.87;7.00;;;26.80;19.80;;;;;;5051970;28;20443;-72
2021/07/04 10:40:42;;;;;;;28.95;21.20;;;26.60;21.30;;;;;;5054100;28;20809;-72
2021/07/04 10:43:08;;;;;;;24.48;20.58;;;26.40;22.60;;;;;;5053324;28;20384;-72
2021/07/04 10:45:42;;;;;;;15.32;12.50;;;26.50;23.80;;;;;;5053832;28;20405;-72
2021/07/04 10:48:19;;;;;;;11.27;7.60;;;26.90;24.90;;;;;;5052816;28;20735;-72
2021/07/04 10:51:08;;;;;;;9.85;7.70;;;27.40;23.80;;;;;;5053488;28;20411;-73
2021/07/04 10:53:50;;;;;;;13.05;8.00;;;27.50;21.80;;;;;;5051919;28;20382;-71
2021/07/04 10:56:35;;;;;;;8.67;7.77;;;27.50;22.70;;;;;;5053691;28;20519;-72
2021/07/04 10:59:01;;;;;;;9.18;8.13;;;27.40;22.30;;;;;;5054317;28;20374;-73
2021/07/04 11:01:48;;;;;;;13.27;8.50;;;27.20;24.10;;;;;;5053629;28;20380;-73
2021/07/04 11:04:49;;;;;;;14.00;9.60;;;26.70;22.60;;;;;;5053349;28;20730;-72
2021/07/04 11:07:14;;;;;;;8.70;7.90;;;26.20;23.60;;;;;;5032035;28;20440;-72
2021/07/04 11:09:52;;;;;;;22.48;11.95;;;25.90;24.20;;;;;;5054267;28;20424;-73
2021/07/04 11:12:25;;;;;;;16.90;9.70;;;25.60;32.80;;;;;;5053922;28;20389;-73
2021/07/04 11:15:19;;;;;;;12.43;9.43;;;25.40;36.20;;;;;;5053997;28;20381;-73
2021/07/04 11:18:00;;;;;;;12.07;10.60;;;25.00;39.80;;;;;;5053437;28;20804;-73
2021/07/04 11:20:47;;;;;;;11.80;9.88;;;24.80;40.50;;;;;;5054449;28;20808;-73
2021/07/04 11:23:22;;;;;;;14.38;11.85;;;24.50;44.30;;;;;;5053605;28;20516;-73
2021/07/04 11:25:59;;;;;;;15.00;13.40;;;24.40;45.70;;;;;;5053463;28;20881;-72
2021/07/04 11:28:31;;;;;;;14.85;12.27;;;24.50;47.70;;;;;;5052971;28;20757;-70
2021/07/04 11:30:59;;;;;;;15.63;11.80;;;24.70;47.80;;;;;;5053239;28;20480;-73
2021/07/04 11:33:42;;;;;;;16.57;11.70;;;25.10;44.70;;;;;;5053187;28;20381;-73
2021/07/04 11:36:26;;;;;;;16.60;11.02;;;25.50;42.20;;;;;;5051742;28;20450;-70
2021/07/04 11:39:12;;;;;;;12.63;10.05;;;25.90;38.80;;;;;;5053121;28;20904;-72
2021/07/04 11:41:41;;;;;;;12.20;9.30;;;26.20;37.80;;;;;;5052775;28;20385;-71
2021/07/04 11:44:13;;;;;;;10.85;9.43;;;26.50;35.50;;;;;;5052493;28;20401;-72
2021/07/04 11:46:42;;;;;;;12.93;9.80;;;26.60;34.50;;;;;;5052532;28;20388;-73
2021/07/04 11:49:13;;;;;;;18.35;10.23;;;26.80;34.20;;;;;;5052110;28;20413;-70
2021/07/04 11:51:46;;;;;;;14.95;11.02;;;27.00;33.90;;;;;;5051840;28;20381;-71
2021/07/04 11:54:34;;;;;;;17.65;10.55;;;27.10;33.80;;;;;;5051784;28;20382;-72
2021/07/04 12:00:07;;;;;;;11.65;10.13;;;27.30;33.50;;;;;;5052106;28;20368;-70
2021/07/04 12:02:42;;;;;;;12.55;8.95;;;27.50;32.60;;;;;;5052306;28;20382;-72
2021/07/04 12:05:13;;;;;;;11.13;9.93;;;27.80;31.40;;;;;;5052182;28;20421;-73
2021/07/04 12:07:39;;;;;;;28.05;22.98;;;27.80;32.10;;;;;;5051831;28;20385;-72
2021/07/04 12:10:06;;;;;;;13.10;10.57;;;27.80;31.80;;;;;;5051756;28;20397;-72
2021/07/04 12:12:35;;;;;;;11.45;10.25;;;27.70;29.60;;;;;;5051677;28;20420;-69
2021/07/04 12:15:12;;;;;;;11.85;10.10;;;27.40;28.80;;;;;;5051445;28;20769;-71
2021/07/04 12:17:40;;;;;;;10.75;9.60;;;27.40;30.60;;;;;;5050590;28;20390;-72
2021/07/04 12:20:11;;;;;;;13.40;9.95;;;27.20;33.20;;;;;;5051775;28;20469;-73
2021/07/04 12:22:48;;;;;;;13.55;11.07;;;27.00;33.20;;;;;;5051589;28;20374;-71
2021/07/04 12:25:20;;;;;;;14.98;9.45;;;26.60;35.50;;;;;;5051529;28;20476;-71
2021/07/04 12:27:51;;;;;;;9.77;8.77;;;26.10;36.40;;;;;;5051739;28;20415;-71
2021/07/04 12:30:20;;;;;;;9.77;8.77;;;25.90;37.50;;;;;;5051139;28;20421;-72
2021/07/04 12:32:53;;;;;;;10.38;9.20;;;25.70;40.70;;;;;;5051413;28;20417;-72
2021/07/04 12:35:22;;;;;;;8.98;7.82;;;25.70;41.30;;;;;;5051176;28;20818;-72
2021/07/04 12:37:48;;;;;;;14.15;11.15;;;25.60;41.80;;;;;;5051228;28;20878;-72